sensor_id;sensor_type;location;lat;lon;timestamp;pressure;altitude;pressure_sealevel;temperature;humidity
64644;BME280;51056;50.330;7.914;2023-04-19T00:00:06;101508.63;;;11.73;67.70
64644;BME280;51056;50.330;7.914;2023-04-19T00:03:13;101497.28;;;11.72;67.75
64644;BME280;51056;50.330;7.914;2023-04-19T00:06:17;101495.47;;;11.74;67.32
64644;BME280;51056;50.330;7.914;2023-04-19T00:09:20;101491.84;;;11.77;67.27
64644;BME280;51056;50.330;7.914;2023-04-19T00:12:23;101494.53;;;11.75;67.47
64644;BME280;51056;50.330;7.914;2023-04-19T00:15:26;101486.13;;;11.67;67.63
64644;BME280;51056;50.330;7.914;2023-04-19T00:18:29;101486.94;;;11.69;67.88
64644;BME280;51056;50.330;7.914;2023-04-19T00:21:32;101479.53;;;11.58;68.29
64644;BME280;51056;50.330;7.914;2023-04-19T00:24:35;101475.72;;;11.66;68.07
64644;BME280;51056;50.330;7.914;2023-04-19T00:27:38;101484.44;;;11.66;68.40
64644;BME280;51056;50.330;7.914;2023-04-19T00:30:41;101485.16;;;11.70;68.16
64644;BME280;51056;50.330;7.914;2023-04-19T00:33:46;101480.84;;;11.69;68.19
64644;BME280;51056;50.330;7.914;2023-04-19T00:36:49;101480.13;;;11.65;68.56
64644;BME280;51056;50.330;7.914;2023-04-19T00:39:52;101478.41;;;11.64;68.55
64644;BME280;51056;50.330;7.914;2023-04-19T00:42:55;101479.41;;;11.61;68.77
64644;BME280;51056;50.330;7.914;2023-04-19T00:45:58;101485.53;;;11.60;68.99
64644;BME280;51056;50.330;7.914;2023-04-19T00:49:01;101478.41;;;11.64;68.59
64644;BME280;51056;50.330;7.914;2023-04-19T00:52:04;101478.41;;;11.64;68.60
64644;BME280;51056;50.330;7.914;2023-04-19T00:55:08;101481.81;;;11.66;68.42
64644;BME280;51056;50.330;7.914;2023-04-19T00:58:11;101474.88;;;11.65;68.24
64644;BME280;51056;50.330;7.914;2023-04-19T01:01:15;101474.34;;;11.57;68.42
64644;BME280;51056;50.330;7.914;2023-04-19T01:04:17;101479.44;;;11.60;68.45
64644;BME280;51056;50.330;7.914;2023-04-19T01:07:22;101470.53;;;11.64;68.55
64644;BME280;51056;50.330;7.914;2023-04-19T01:10:26;101466.22;;;11.63;68.51
64644;BME280;51056;50.330;7.914;2023-04-19T01:13:30;101467.16;;;11.62;68.66
64644;BME280;51056;50.330;7.914;2023-04-19T01:16:33;101458.44;;;11.61;68.71
64644;BME280;51056;50.330;7.914;2023-04-19T01:19:38;101461.97;;;11.60;68.91
64644;BME280;51056;50.330;7.914;2023-04-19T01:22:41;101457.44;;;11.44;69.24
64644;BME280;51056;50.330;7.914;2023-04-19T01:25:45;101448.72;;;11.43;68.95
64644;BME280;51056;50.330;7.914;2023-04-19T01:28:49;101457.44;;;11.44;69.02
64644;BME280;51056;50.330;7.914;2023-04-19T01:31:52;101458.59;;;11.36;69.66
64644;BME280;51056;50.330;7.914;2023-04-19T01:34:55;101447.56;;;11.28;70.00
64644;BME280;51056;50.330;7.914;2023-04-19T01:37:58;101449.22;;;11.31;69.98
64644;BME280;51056;50.330;7.914;2023-04-19T01:41:01;101439.72;;;11.28;70.13
64644;BME280;51056;50.330;7.914;2023-04-19T01:44:04;101441.69;;;11.23;70.25
64644;BME280;51056;50.330;7.914;2023-04-19T01:47:07;101444.16;;;11.26;70.32
64644;BME280;51056;50.330;7.914;2023-04-19T01:50:10;101435.53;;;11.24;70.39
64644;BME280;51056;50.330;7.914;2023-04-19T01:53:13;101437.59;;;11.16;71.29
64644;BME280;51056;50.330;7.914;2023-04-19T01:56:16;101433.41;;;11.12;71.19
64644;BME280;51056;50.330;7.914;2023-04-19T01:59:19;101429.13;;;11.09;71.47
64644;BME280;51056;50.330;7.914;2023-04-19T02:02:23;101428.16;;;11.12;71.47
64644;BME280;51056;50.330;7.914;2023-04-19T02:05:26;101430.34;;;11.01;72.27
64644;BME280;51056;50.330;7.914;2023-04-19T02:08:29;101439.13;;;11.00;71.99
64644;BME280;51056;50.330;7.914;2023-04-19T02:11:32;101422.63;;;10.98;72.12
64644;BME280;51056;50.330;7.914;2023-04-19T02:14:35;101415.56;;;11.00;72.32
64644;BME280;51056;50.330;7.914;2023-04-19T02:17:38;101414.91;;;10.94;72.78
64644;BME280;51056;50.330;7.914;2023-04-19T02:20:42;101407.34;;;10.87;73.09
64644;BME280;51056;50.330;7.914;2023-04-19T02:23:46;101418.66;;;10.87;73.16
64644;BME280;51056;50.330;7.914;2023-04-19T02:26:49;101424.19;;;10.80;73.72
64644;BME280;51056;50.330;7.914;2023-04-19T02:29:52;101426.09;;;10.76;73.85
64644;BME280;51056;50.330;7.914;2023-04-19T02:32:55;101419.09;;;10.77;74.05
64644;BME280;51056;50.330;7.914;2023-04-19T02:36:00;101421.75;;;10.75;74.08
64644;BME280;51056;50.330;7.914;2023-04-19T02:39:04;101412.03;;;10.79;73.97
64644;BME280;51056;50.330;7.914;2023-04-19T02:42:07;101413.72;;;10.80;74.04
64644;BME280;51056;50.330;7.914;2023-04-19T02:45:10;101413.53;;;10.84;74.00
64644;BME280;51056;50.330;7.914;2023-04-19T02:48:13;101412.66;;;10.85;74.46
64644;BME280;51056;50.330;7.914;2023-04-19T02:51:16;101415.28;;;10.85;74.51
64644;BME280;51056;50.330;7.914;2023-04-19T02:54:19;101414.41;;;10.85;74.47
64644;BME280;51056;50.330;7.914;2023-04-19T02:57:23;101409.34;;;10.80;74.61
64644;BME280;51056;50.330;7.914;2023-04-19T03:00:27;101410.28;;;10.79;75.25
64644;BME280;51056;50.330;7.914;2023-04-19T03:03:40;101410.16;;;10.82;74.82
64644;BME280;51056;50.330;7.914;2023-04-19T03:06:43;101407.53;;;10.82;74.96
64644;BME280;51056;50.330;7.914;2023-04-19T03:09:46;101403.28;;;10.80;75.34
64644;BME280;51056;50.330;7.914;2023-04-19T03:12:49;101399.94;;;10.76;75.84
64644;BME280;51056;50.330;7.914;2023-04-19T03:15:53;101391.41;;;10.71;76.37
64644;BME280;51056;50.330;7.914;2023-04-19T03:18:58;101397.59;;;10.68;76.70
64644;BME280;51056;50.330;7.914;2023-04-19T03:22:05;101393.34;;;10.66;77.21
64644;BME280;51056;50.330;7.914;2023-04-19T03:25:09;101395.97;;;10.66;76.97
64644;BME280;51056;50.330;7.914;2023-04-19T03:28:15;101405.50;;;10.67;76.92
64644;BME280;51056;50.330;7.914;2023-04-19T03:31:41;101393.47;;;10.63;77.08
64644;BME280;51056;50.330;7.914;2023-04-19T03:34:47;101393.50;;;10.61;77.25
64644;BME280;51056;50.330;7.914;2023-04-19T03:37:51;101392.66;;;10.61;77.46
64644;BME280;51056;50.330;7.914;2023-04-19T03:40:55;101390.91;;;10.61;77.72
64644;BME280;51056;50.330;7.914;2023-04-19T03:44:00;101391.94;;;10.57;77.96
64644;BME280;51056;50.330;7.914;2023-04-19T03:47:04;101386.75;;;10.56;78.02
64644;BME280;51056;50.330;7.914;2023-04-19T03:50:13;101384.31;;;10.51;78.06
64644;BME280;51056;50.330;7.914;2023-04-19T03:53:18;101379.03;;;10.53;77.97
64644;BME280;51056;50.330;7.914;2023-04-19T03:56:22;101376.53;;;10.50;78.14
64644;BME280;51056;50.330;7.914;2023-04-19T03:59:26;101380.88;;;10.51;78.23
64644;BME280;51056;50.330;7.914;2023-04-19T04:02:30;101381.91;;;10.46;78.45
64644;BME280;51056;50.330;7.914;2023-04-19T04:05:37;101381.09;;;10.44;78.66
64644;BME280;51056;50.330;7.914;2023-04-19T04:08:40;101381.94;;;10.45;78.61
64644;BME280;51056;50.330;7.914;2023-04-19T04:11:42;101382.13;;;10.40;79.14
64644;BME280;51056;50.330;7.914;2023-04-19T04:14:46;101393.31;;;10.44;79.22
64644;BME280;51056;50.330;7.914;2023-04-19T04:17:50;101386.09;;;10.51;78.73
64644;BME280;51056;50.330;7.914;2023-04-19T04:20:55;101390.41;;;10.52;79.02
64644;BME280;51056;50.330;7.914;2023-04-19T04:24:00;101395.88;;;10.45;79.16
64644;BME280;51056;50.330;7.914;2023-04-19T04:27:28;101395.88;;;10.45;78.70
64644;BME280;51056;50.330;7.914;2023-04-19T04:30:41;101402.94;;;10.43;78.67
64644;BME280;51056;50.330;7.914;2023-04-19T04:33:50;101395.13;;;10.42;78.47
64644;BME280;51056;50.330;7.914;2023-04-19T04:41:21;101394.81;;;10.50;79.12
64644;BME280;51056;50.330;7.914;2023-04-19T04:44:45;101398.31;;;10.50;78.87
64644;BME280;51056;50.330;7.914;2023-04-19T04:47:49;101394.97;;;10.46;79.05
64644;BME280;51056;50.330;7.914;2023-04-19T04:50:53;101396.56;;;10.51;79.20
64644;BME280;51056;50.330;7.914;2023-04-19T04:53:56;101394.72;;;10.53;78.82
64644;BME280;51056;50.330;7.914;2023-04-19T04:57:00;101400.06;;;10.50;79.18
64644;BME280;51056;50.330;7.914;2023-04-19T05:00:04;101394.91;;;10.48;79.72
64644;BME280;51056;50.330;7.914;2023-04-19T05:03:15;101395.75;;;10.48;79.37
64644;BME280;51056;50.330;7.914;2023-04-19T05:06:24;101392.97;;;10.53;79.14
64644;BME280;51056;50.330;7.914;2023-04-19T05:09:29;101389.56;;;10.51;79.00
64644;BME280;51056;50.330;7.914;2023-04-19T05:12:37;101392.16;;;10.51;79.31
64644;BME280;51056;50.330;7.914;2023-04-19T05:15:41;101386.22;;;10.47;79.35
64644;BME280;51056;50.330;7.914;2023-04-19T05:18:45;101393.25;;;10.45;79.74
64644;BME280;51056;50.330;7.914;2023-04-19T05:21:56;101394.91;;;10.48;80.16
64644;BME280;51056;50.330;7.914;2023-04-19T05:25:32;101392.34;;;10.46;80.56
64644;BME280;51056;50.330;7.914;2023-04-19T05:28:45;101388.88;;;10.46;80.78
64644;BME280;51056;50.330;7.914;2023-04-19T05:32:34;101381.91;;;10.46;80.74
64644;BME280;51056;50.330;7.914;2023-04-19T05:35:40;101380.91;;;10.49;80.81
64644;BME280;51056;50.330;7.914;2023-04-19T05:38:49;101385.28;;;10.48;80.74
64644;BME280;51056;50.330;7.914;2023-04-19T05:41:52;101388.81;;;10.47;81.07
64644;BME280;51056;50.330;7.914;2023-04-19T05:44:55;101387.91;;;10.48;80.89
64644;BME280;51056;50.330;7.914;2023-04-19T05:47:58;101383.59;;;10.47;81.34
64644;BME280;51056;50.330;7.914;2023-04-19T05:51:29;101379.28;;;10.46;80.85
64644;BME280;51056;50.330;7.914;2023-04-19T05:54:46;101378.41;;;10.46;80.60
64644;BME280;51056;50.330;7.914;2023-04-19T05:57:50;101382.00;;;10.43;80.96
64644;BME280;51056;50.330;7.914;2023-04-19T06:00:54;101387.91;;;10.48;80.96
64644;BME280;51056;50.330;7.914;2023-04-19T06:03:59;101384.25;;;10.53;81.16
64644;BME280;51056;50.330;7.914;2023-04-19T06:07:05;101377.31;;;10.52;81.13
64644;BME280;51056;50.330;7.914;2023-04-19T06:10:09;101378.25;;;10.51;80.44
64644;BME280;51056;50.330;7.914;2023-04-19T06:13:12;101378.97;;;10.54;80.66
64644;BME280;51056;50.330;7.914;2023-04-19T06:16:18;101383.25;;;10.57;81.06
64644;BME280;51056;50.330;7.914;2023-04-19T06:19:21;101383.91;;;10.62;80.84
64644;BME280;51056;50.330;7.914;2023-04-19T06:22:24;101387.25;;;10.65;80.34
64644;BME280;51056;50.330;7.914;2023-04-19T06:25:28;101381.84;;;10.70;79.92
64644;BME280;51056;50.330;7.914;2023-04-19T06:28:32;101391.47;;;10.69;79.27
64644;BME280;51056;50.330;7.914;2023-04-19T06:31:35;101380.69;;;10.77;79.29
64644;BME280;51056;50.330;7.914;2023-04-19T06:34:37;101374.50;;;10.80;79.40
64644;BME280;51056;50.330;7.914;2023-04-19T06:37:41;101379.50;;;10.86;79.59
64644;BME280;51056;50.330;7.914;2023-04-19T06:40:44;101381.06;;;10.90;79.51
64644;BME280;51056;50.330;7.914;2023-04-19T06:43:47;101390.81;;;10.86;79.81
64644;BME280;51056;50.330;7.914;2023-04-19T06:46:50;101380.09;;;10.92;78.84
64644;BME280;51056;50.330;7.914;2023-04-19T06:49:53;101385.25;;;10.94;77.43
64644;BME280;51056;50.330;7.914;2023-04-19T06:52:57;101380.50;;;11.04;77.27
64644;BME280;51056;50.330;7.914;2023-04-19T06:56:01;101388.22;;;11.07;76.47
64644;BME280;51056;50.330;7.914;2023-04-19T06:59:04;101380.19;;;11.11;75.62
64644;BME280;51056;50.330;7.914;2023-04-19T07:02:08;101379.16;;;11.15;75.00
64644;BME280;51056;50.330;7.914;2023-04-19T07:05:10;101374.00;;;11.14;73.61
64644;BME280;51056;50.330;7.914;2023-04-19T07:08:15;101374.97;;;11.11;72.16
64644;BME280;51056;50.330;7.914;2023-04-19T07:11:24;101376.53;;;11.15;70.83
64644;BME280;51056;50.330;7.914;2023-04-19T07:14:27;101374.63;;;11.19;70.24
64644;BME280;51056;50.330;7.914;2023-04-19T07:17:34;101370.94;;;11.25;69.74
64644;BME280;51056;50.330;7.914;2023-04-19T07:20:44;101371.53;;;11.31;69.85
64644;BME280;51056;50.330;7.914;2023-04-19T07:23:56;101369.88;;;11.29;68.24
64644;BME280;51056;50.330;7.914;2023-04-19T07:26:59;101365.19;;;11.37;68.34
64644;BME280;51056;50.330;7.914;2023-04-19T07:30:02;101371.13;;;11.40;68.14
64644;BME280;51056;50.330;7.914;2023-04-19T07:33:06;101366.88;;;11.38;67.63
64644;BME280;51056;50.330;7.914;2023-04-19T07:36:10;101371.13;;;11.40;67.31
64644;BME280;51056;50.330;7.914;2023-04-19T07:39:13;101356.00;;;11.47;66.84
64644;BME280;51056;50.330;7.914;2023-04-19T07:42:16;101359.44;;;11.49;66.55
64644;BME280;51056;50.330;7.914;2023-04-19T07:45:22;101359.88;;;11.59;66.27
64644;BME280;51056;50.330;7.914;2023-04-19T07:48:25;101357.13;;;11.62;65.68
64644;BME280;51056;50.330;7.914;2023-04-19T07:51:28;101357.19;;;11.60;65.12
64644;BME280;51056;50.330;7.914;2023-04-19T07:54:31;101357.06;;;11.63;63.94
64644;BME280;51056;50.330;7.914;2023-04-19T07:57:34;101358.34;;;11.74;63.56
64644;BME280;51056;50.330;7.914;2023-04-19T08:00:37;101350.84;;;11.66;62.48
64644;BME280;51056;50.330;7.914;2023-04-19T08:03:40;101351.81;;;11.63;63.18
64644;BME280;51056;50.330;7.914;2023-04-19T08:06:43;101348.53;;;11.79;63.56
64644;BME280;51056;50.330;7.914;2023-04-19T08:09:47;101343.75;;;11.89;62.50
64644;BME280;51056;50.330;7.914;2023-04-19T08:12:50;101351.34;;;11.95;62.24
64644;BME280;51056;50.330;7.914;2023-04-19T08:15:53;101342.41;;;11.99;62.29
64644;BME280;51056;50.330;7.914;2023-04-19T08:18:56;101340.66;;;11.99;61.09
64644;BME280;51056;50.330;7.914;2023-04-19T08:21:59;101337.13;;;12.00;61.40
64644;BME280;51056;50.330;7.914;2023-04-19T08:25:02;101331.22;;;11.95;61.06
64644;BME280;51056;50.330;7.914;2023-04-19T08:28:05;101331.19;;;11.97;60.62
64644;BME280;51056;50.330;7.914;2023-04-19T08:31:09;101331.19;;;11.97;60.76
64644;BME280;51056;50.330;7.914;2023-04-19T08:34:12;101333.72;;;11.98;60.29
64644;BME280;51056;50.330;7.914;2023-04-19T08:37:17;101333.78;;;11.97;59.66
64644;BME280;51056;50.330;7.914;2023-04-19T08:40:21;101340.91;;;11.93;59.88
64644;BME280;51056;50.330;7.914;2023-04-19T08:43:25;101336.69;;;11.91;59.37
64644;BME280;51056;50.330;7.914;2023-04-19T08:46:35;101339.94;;;11.96;59.19
64644;BME280;51056;50.330;7.914;2023-04-19T08:49:38;101333.94;;;12.13;58.85
64644;BME280;51056;50.330;7.914;2023-04-19T08:52:41;101319.97;;;12.12;58.94
64644;BME280;51056;50.330;7.914;2023-04-19T08:55:45;101320.75;;;12.14;58.97
64644;BME280;51056;50.330;7.914;2023-04-19T08:58:49;101320.34;;;12.23;58.72
64644;BME280;51056;50.330;7.914;2023-04-19T09:01:53;101318.84;;;12.37;58.53
64644;BME280;51056;50.330;7.914;2023-04-19T09:04:57;101317.16;;;12.36;57.37
64644;BME280;51056;50.330;7.914;2023-04-19T09:08:19;101297.19;;;12.50;57.56
64644;BME280;51056;50.330;7.914;2023-04-19T09:11:34;101304.28;;;12.48;56.40
64644;BME280;51056;50.330;7.914;2023-04-19T09:14:41;101298.97;;;12.50;56.47
64644;BME280;51056;50.330;7.914;2023-04-19T09:17:46;101301.94;;;12.61;56.45
64644;BME280;51056;50.330;7.914;2023-04-19T09:21:07;101306.91;;;12.85;56.45
64644;BME280;51056;50.330;7.914;2023-04-19T09:24:11;101302.88;;;12.95;56.21
64644;BME280;51056;50.330;7.914;2023-04-19T09:27:16;101301.03;;;12.97;55.14
64644;BME280;51056;50.330;7.914;2023-04-19T09:30:21;101303.53;;;13.00;55.22
64644;BME280;51056;50.330;7.914;2023-04-19T09:33:37;101293.63;;;12.88;55.40
64644;BME280;51056;50.330;7.914;2023-04-19T09:36:49;101293.78;;;12.67;55.16
64644;BME280;51056;50.330;7.914;2023-04-19T09:40:20;101293.63;;;12.70;55.40
64644;BME280;51056;50.330;7.914;2023-04-19T09:43:24;101290.59;;;12.78;55.06
64644;BME280;51056;50.330;7.914;2023-04-19T09:46:34;101280.94;;;12.78;54.21
64644;BME280;51056;50.330;7.914;2023-04-19T09:49:38;101278.28;;;12.80;53.92
64644;BME280;51056;50.330;7.914;2023-04-19T09:52:42;101280.34;;;12.91;53.46
64644;BME280;51056;50.330;7.914;2023-04-19T09:55:46;101271.09;;;13.01;53.78
64644;BME280;51056;50.330;7.914;2023-04-19T09:58:49;101276.19;;;13.21;54.35
64644;BME280;51056;50.330;7.914;2023-04-19T10:06:31;101268.31;;;13.21;52.86
64644;BME280;51056;50.330;7.914;2023-04-19T10:09:36;101253.63;;;13.35;51.70
64644;BME280;51056;50.330;7.914;2023-04-19T10:12:40;101253.16;;;13.44;51.38
64644;BME280;51056;50.330;7.914;2023-04-19T10:15:43;101248.97;;;13.40;50.30
64644;BME280;51056;50.330;7.914;2023-04-19T10:18:50;101251.00;;;13.35;49.77
64644;BME280;51056;50.330;7.914;2023-04-19T10:21:54;101236.88;;;13.37;48.95
64644;BME280;51056;50.330;7.914;2023-04-19T10:25:11;101240.25;;;13.39;48.26
64644;BME280;51056;50.330;7.914;2023-04-19T10:28:15;101240.94;;;13.43;47.62
64644;BME280;51056;50.330;7.914;2023-04-19T10:31:19;101234.34;;;13.52;47.18
64644;BME280;51056;50.330;7.914;2023-04-19T10:34:40;101227.75;;;13.60;47.89
64644;BME280;51056;50.330;7.914;2023-04-19T10:41:05;101230.13;;;13.65;46.94
64644;BME280;51056;50.330;7.914;2023-04-19T10:44:13;101229.56;;;13.76;46.90
64644;BME280;51056;50.330;7.914;2023-04-19T10:47:39;101229.25;;;13.82;45.96
64644;BME280;51056;50.330;7.914;2023-04-19T10:50:59;101224.41;;;13.90;46.56
64644;BME280;51056;50.330;7.914;2023-04-19T10:54:02;101205.81;;;14.09;47.10
64644;BME280;51056;50.330;7.914;2023-04-19T10:57:08;101202.56;;;14.19;46.07
64644;BME280;51056;50.330;7.914;2023-04-19T11:00:19;101206.91;;;14.21;45.63
64644;BME280;51056;50.330;7.914;2023-04-19T11:09:54;101198.16;;;14.36;43.72
64644;BME280;51056;50.330;7.914;2023-04-19T11:12:57;101191.31;;;14.17;42.73
64644;BME280;51056;50.330;7.914;2023-04-19T11:16:06;101180.72;;;14.03;42.64
64644;BME280;51056;50.330;7.914;2023-04-19T11:19:13;101184.72;;;14.10;42.31
64644;BME280;51056;50.330;7.914;2023-04-19T11:22:16;101182.81;;;14.12;41.27
64644;BME280;51056;50.330;7.914;2023-04-19T11:25:20;101174.84;;;14.14;41.27
64644;BME280;51056;50.330;7.914;2023-04-19T11:28:24;101173.28;;;14.26;41.01
64644;BME280;51056;50.330;7.914;2023-04-19T11:31:27;101187.38;;;14.25;40.80
64644;BME280;51056;50.330;7.914;2023-04-19T11:34:34;101166.66;;;14.34;40.75
64644;BME280;51056;50.330;7.914;2023-04-19T11:37:38;101164.69;;;14.38;41.00
64644;BME280;51056;50.330;7.914;2023-04-19T11:40:41;101162.00;;;14.39;41.20
64644;BME280;51056;50.330;7.914;2023-04-19T11:43:44;101155.19;;;14.51;41.49
64644;BME280;51056;50.330;7.914;2023-04-19T11:46:59;101151.84;;;14.63;41.72
64644;BME280;51056;50.330;7.914;2023-04-19T11:53:23;101144.53;;;14.83;40.60
64644;BME280;51056;50.330;7.914;2023-04-19T11:56:27;101135.34;;;15.04;39.98
64644;BME280;51056;50.330;7.914;2023-04-19T11:59:34;101143.41;;;15.01;38.63
64644;BME280;51056;50.330;7.914;2023-04-19T12:02:38;101138.63;;;14.94;38.86
64644;BME280;51056;50.330;7.914;2023-04-19T12:05:54;101134.56;;;14.88;37.81
64644;BME280;51056;50.330;7.914;2023-04-19T12:08:58;101138.16;;;14.87;38.07
64644;BME280;51056;50.330;7.914;2023-04-19T12:12:01;101134.00;;;14.69;38.16
64644;BME280;51056;50.330;7.914;2023-04-19T12:15:08;101123.22;;;14.87;38.18
64644;BME280;51056;50.330;7.914;2023-04-19T12:18:12;101117.75;;;15.05;38.52
64644;BME280;51056;50.330;7.914;2023-04-19T12:21:29;101121.22;;;15.20;37.95
64644;BME280;51056;50.330;7.914;2023-04-19T12:24:33;101119.50;;;15.33;36.65
64644;BME280;51056;50.330;7.914;2023-04-19T12:27:39;101104.88;;;15.56;36.33
64644;BME280;51056;50.330;7.914;2023-04-19T12:30:43;101102.59;;;15.64;35.38
64644;BME280;51056;50.330;7.914;2023-04-19T12:33:46;101107.66;;;15.81;34.08
64644;BME280;51056;50.330;7.914;2023-04-19T12:36:49;101100.88;;;16.04;35.19
64644;BME280;51056;50.330;7.914;2023-04-19T12:39:53;101085.75;;;16.21;32.86
64644;BME280;51056;50.330;7.914;2023-04-19T12:42:56;101089.97;;;16.36;33.73
64644;BME280;51056;50.330;7.914;2023-04-19T12:45:59;101084.06;;;16.45;32.08
64644;BME280;51056;50.330;7.914;2023-04-19T12:49:02;101070.66;;;16.36;32.00
64644;BME280;51056;50.330;7.914;2023-04-19T12:52:05;101088.78;;;16.15;30.83
64644;BME280;51056;50.330;7.914;2023-04-19T12:55:08;101079.94;;;16.41;31.33
64644;BME280;51056;50.330;7.914;2023-04-19T12:58:12;101078.56;;;16.61;31.49
64644;BME280;51056;50.330;7.914;2023-04-19T13:01:15;101060.94;;;16.87;32.33
64644;BME280;51056;50.330;7.914;2023-04-19T13:04:18;101072.00;;;17.18;31.10
64644;BME280;51056;50.330;7.914;2023-04-19T13:07:21;101051.00;;;17.40;31.03
64644;BME280;51056;50.330;7.914;2023-04-19T13:10:24;101042.00;;;17.67;30.93
64644;BME280;51056;50.330;7.914;2023-04-19T13:13:28;101054.38;;;17.42;30.15
64644;BME280;51056;50.330;7.914;2023-04-19T13:16:31;101034.69;;;17.47;30.76
64644;BME280;51056;50.330;7.914;2023-04-19T13:19:34;101043.81;;;17.42;30.32
64644;BME280;51056;50.330;7.914;2023-04-19T13:22:37;101043.00;;;17.90;30.41
64644;BME280;51056;50.330;7.914;2023-04-19T13:25:40;101025.88;;;18.41;30.57
64644;BME280;51056;50.330;7.914;2023-04-19T13:28:44;101031.50;;;18.83;29.10
64644;BME280;51056;50.330;7.914;2023-04-19T13:31:48;101024.97;;;19.09;26.52
64644;BME280;51056;50.330;7.914;2023-04-19T13:34:51;101009.78;;;18.66;25.99
64644;BME280;51056;50.330;7.914;2023-04-19T13:37:54;101021.06;;;19.24;27.29
64644;BME280;51056;50.330;7.914;2023-04-19T13:40:58;101011.25;;;19.36;24.91
64644;BME280;51056;50.330;7.914;2023-04-19T13:44:03;101002.25;;;19.71;25.65
64644;BME280;51056;50.330;7.914;2023-04-19T13:47:07;101007.09;;;20.50;24.23
64644;BME280;51056;50.330;7.914;2023-04-19T13:50:10;100988.00;;;20.56;22.52
64644;BME280;51056;50.330;7.914;2023-04-19T13:53:12;100979.78;;;21.28;22.02
64644;BME280;51056;50.330;7.914;2023-04-19T13:56:15;100984.13;;;23.55;20.68
64644;BME280;51056;50.330;7.914;2023-04-19T13:59:19;100971.97;;;26.38;17.67
64644;BME280;51056;50.330;7.914;2023-04-19T14:02:25;100962.38;;;28.36;15.27
64644;BME280;51056;50.330;7.914;2023-04-19T14:05:29;100970.38;;;29.53;14.55
64644;BME280;51056;50.330;7.914;2023-04-19T14:08:32;100950.81;;;30.63;13.18
64644;BME280;51056;50.330;7.914;2023-04-19T14:11:34;100959.66;;;30.92;12.44
64644;BME280;51056;50.330;7.914;2023-04-19T14:14:40;100945.19;;;31.19;12.74
64644;BME280;51056;50.330;7.914;2023-04-19T14:17:42;100945.63;;;30.20;12.46
64644;BME280;51056;50.330;7.914;2023-04-19T14:20:46;100945.97;;;28.75;13.72
64644;BME280;51056;50.330;7.914;2023-04-19T14:23:49;100937.22;;;30.37;12.57
64644;BME280;51056;50.330;7.914;2023-04-19T14:26:52;100935.75;;;30.89;12.32
64644;BME280;51056;50.330;7.914;2023-04-19T14:29:55;100943.97;;;31.48;12.42
64644;BME280;51056;50.330;7.914;2023-04-19T14:32:58;100944.41;;;31.92;11.66
64644;BME280;51056;50.330;7.914;2023-04-19T14:36:01;100937.53;;;31.69;12.17
64644;BME280;51056;50.330;7.914;2023-04-19T14:39:04;100935.75;;;30.41;12.24
64644;BME280;51056;50.330;7.914;2023-04-19T14:42:08;100946.84;;;31.27;12.47
64644;BME280;51056;50.330;7.914;2023-04-19T14:45:11;100941.09;;;31.63;11.63
64644;BME280;51056;50.330;7.914;2023-04-19T14:48:14;100940.59;;;31.26;12.26
64644;BME280;51056;50.330;7.914;2023-04-19T14:51:17;100935.44;;;31.32;11.67
64644;BME280;51056;50.330;7.914;2023-04-19T14:54:20;100931.94;;;31.38;11.03
64644;BME280;51056;50.330;7.914;2023-04-19T14:57:23;100930.28;;;31.43;11.26
64644;BME280;51056;50.330;7.914;2023-04-19T15:00:27;100936.91;;;31.61;11.00
64644;BME280;51056;50.330;7.914;2023-04-19T15:03:30;100932.22;;;30.88;11.31
64644;BME280;51056;50.330;7.914;2023-04-19T15:06:33;100939.34;;;30.96;11.23
64644;BME280;51056;50.330;7.914;2023-04-19T15:09:36;100932.22;;;30.81;11.02
64644;BME280;51056;50.330;7.914;2023-04-19T15:12:39;100926.84;;;30.05;11.36
64644;BME280;51056;50.330;7.914;2023-04-19T15:15:41;100923.88;;;29.44;11.82
64644;BME280;51056;50.330;7.914;2023-04-19T15:18:44;100924.19;;;29.77;12.27
64644;BME280;51056;50.330;7.914;2023-04-19T15:21:47;100917.38;;;29.60;12.32
64644;BME280;51056;50.330;7.914;2023-04-19T15:24:50;100922.50;;;28.54;13.07
64644;BME280;51056;50.330;7.914;2023-04-19T15:27:53;100935.13;;;26.40;14.29
64644;BME280;51056;50.330;7.914;2023-04-19T15:31:06;100941.34;;;24.43;17.08
64644;BME280;51056;50.330;7.914;2023-04-19T15:34:09;100943.28;;;22.81;20.04
64644;BME280;51056;50.330;7.914;2023-04-19T15:37:12;100944.41;;;22.14;21.46
64644;BME280;51056;50.330;7.914;2023-04-19T15:40:16;100940.94;;;23.77;18.43
64644;BME280;51056;50.330;7.914;2023-04-19T15:43:19;100938.66;;;23.47;20.81
64644;BME280;51056;50.330;7.914;2023-04-19T15:46:22;100934.31;;;23.89;18.38
64644;BME280;51056;50.330;7.914;2023-04-19T15:49:25;100942.88;;;21.35;19.97
64644;BME280;51056;50.330;7.914;2023-04-19T15:52:28;100940.03;;;21.27;20.75
64644;BME280;51056;50.330;7.914;2023-04-19T16:13:54;100961.84;;;18.24;23.25
64644;BME280;51056;50.330;7.914;2023-04-19T16:17:42;100964.38;;;18.37;21.95
64644;BME280;51056;50.330;7.914;2023-04-19T16:20:27;100963.66;;;18.24;21.72
64644;BME280;51056;50.330;7.914;2023-04-19T16:23:35;100958.75;;;18.19;22.07
64644;BME280;51056;50.330;7.914;2023-04-19T16:34:59;100956.97;;;17.01;23.58
64644;BME280;51056;50.330;7.914;2023-04-19T16:42:27;100964.53;;;16.69;24.01
64644;BME280;51056;50.330;7.914;2023-04-19T16:46:09;100954.19;;;16.66;23.62
64644;BME280;51056;50.330;7.914;2023-04-19T16:49:19;100962.22;;;16.39;23.51
64644;BME280;51056;50.330;7.914;2023-04-19T16:52:27;100964.44;;;16.45;23.48
64644;BME280;51056;50.330;7.914;2023-04-19T16:57:00;100963.91;;;16.27;24.01
64644;BME280;51056;50.330;7.914;2023-04-19T17:00:04;100961.81;;;16.19;24.26
64644;BME280;51056;50.330;7.914;2023-04-19T17:03:08;100962.44;;;16.10;24.14